MSC Ans — H3MH — position and weather

sailwx.info

Track history (hours):
 
Tides and Currents Weather Stations Pressure Air Temp Water Temp Dewpoint Dewpoint Depression Visibility Wind Speed Wind Dir Waves Ship Positions

MSC Ans

Last reported at 2017-Nov-19 16:46 UTC. Time now 2017-Nov-21 23:13 UTC.
Position N 36°01' W 005°10'.

Length 294 m; draft 10.7 m.

Type: Ship (hazmat cat A). MMSI: 353873000.

Date/timePositionNaut miles runAvg speedWind from/ knotsBaromVisibWave heightAir tempDewpointWater temp
2017-Nov-19 16:46N 36°01' W 005°10'415.4
2017-Nov-19 16:30N 36°01' W 005°14'815.7
2017-Nov-19 16:01N 35°59' W 005°24'17714.8
2017-Nov-19 04:03N 36°30' W 008°60'114.6
2017-Nov-19 03:59N 36°31' W 009°01'914.5
2017-Nov-19 03:23N 36°33' W 009°11'514.2
2017-Nov-19 03:01N 36°35' W 009°17'713.6
2017-Nov-19 02:30N 36°39' W 009°24'915.0
2017-Nov-19 01:55N 36°46' W 009°31'1114.7
2017-Nov-19 01:12N 36°56' W 009°35'415.1
2017-Nov-19 00:58N 36°60' W 009°36'914.6
2017-Nov-19 00:19N 37°09' W 009°36'514.8
2017-Nov-19 00:00N 37°12' W 009°32'714.7
2017-Nov-18 23:30N 37°18' W 009°26'715.0
2017-Nov-18 23:00N 37°23' W 009°20'815.2
2017-Nov-18 22:30N 37°29' W 009°14'714.7
2017-Nov-18 22:00N 37°35' W 009°09'714.9
2017-Nov-18 21:30N 37°41' W 009°03'714.7
2017-Nov-18 21:00N 37°47' W 008°57'713.4
2017-Nov-18 20:30N 37°52' W 008°51'4 7.3
2017-Nov-18 19:58N 37°56' W 008°51'0 0.0
2017-Nov-18 19:28N 37°56' W 008°51'0 0.0
2017-Nov-18 18:58N 37°56' W 008°51'0 0.0
2017-Nov-18 18:28N 37°56' W 008°51'0 0.0
2017-Nov-18 17:58N 37°56' W 008°51'0 0.0
2017-Nov-18 17:28N 37°56' W 008°51'0 0.0
2017-Nov-18 16:58N 37°56' W 008°51'0 0.0
2017-Nov-18 16:28N 37°56' W 008°51'0 0.0
2017-Nov-18 15:55N 37°56' W 008°51'0 0.0
2017-Nov-18 15:28N 37°56' W 008°51'0 0.0
2017-Nov-18 14:58N 37°56' W 008°51'0 0.0
2017-Nov-18 14:28N 37°56' W 008°51'0 0.0
2017-Nov-18 13:58N 37°56' W 008°51'0 0.0
2017-Nov-18 13:28N 37°56' W 008°51'0 0.0
2017-Nov-18 12:58N 37°56' W 008°51'0 0.0
2017-Nov-18 12:28N 37°56' W 008°51'0 0.3
2017-Nov-18 12:01N 37°56' W 008°51'2 4.5
2017-Nov-18 11:30N 37°54' W 008°51'2 4.8
2017-Nov-18 11:01N 37°52' W 008°53'5 9.9
2017-Nov-18 10:30N 37°53' W 008°59'815.7
2017-Nov-18 10:01N 37°55' W 009°09'918.1
2017-Nov-18 09:30N 37°59' W 009°19'918.0
2017-Nov-18 09:00N 38°01' W 009°30'714.9
2017-Nov-18 08:30N 38°03' W 009°39'714.1
2017-Nov-18 08:01N 38°05' W 009°48'714.4
2017-Nov-18 07:31N 38°08' W 009°57'714.5
2017-Nov-18 07:01N 38°10' W 010°05'714.4
2017-Nov-18 06:30N 38°12' W 010°14'714.3
2017-Nov-18 06:01N 38°14' W 010°23'714.5
2017-Nov-18 05:31N 38°17' W 010°32'714.6
2017-Nov-18 05:01N 38°19' W 010°40'714.5
2017-Nov-18 04:30N 38°21' W 010°49'1014.4
2017-Nov-18 03:51N 38°24' W 011°01'514.1
2017-Nov-18 03:30N 38°25' W 011°07'914.5
2017-Nov-18 02:52N 38°28' W 011°18'2514.5
2017-Nov-18 01:08N 38°36' W 011°48'314.4
2017-Nov-18 00:56N 38°37' W 011°52'714.5
2017-Nov-18 00:28N 38°39' W 012°00'  
Track history (hours):
 
Tides and Currents Weather Stations Pressure Air Temp Water Temp Dewpoint Dewpoint Depression Visibility Wind Speed Wind Dir Waves Ship Positions

MSC Ans

Last reported at 2017-Nov-19 16:46 UTC. Time now 2017-Nov-21 23:13 UTC.
Position N 36°01' W 005°10'.

Length 294 m; draft 10.7 m.

Type: Ship (hazmat cat A). MMSI: 353873000.

Date/timePositionNaut miles runAvg speedWind from/ knotsBaromVisibWave heightAir tempDewpointWater temp
2017-Nov-19 16:46N 36°01' W 005°10'415.4
2017-Nov-19 16:30N 36°01' W 005°14'815.7
2017-Nov-19 16:01N 35°59' W 005°24'17714.8
2017-Nov-19 04:03N 36°30' W 008°60'114.6
2017-Nov-19 03:59N 36°31' W 009°01'914.5
2017-Nov-19 03:23N 36°33' W 009°11'514.2
2017-Nov-19 03:01N 36°35' W 009°17'713.6
2017-Nov-19 02:30N 36°39' W 009°24'915.0
2017-Nov-19 01:55N 36°46' W 009°31'1114.7
2017-Nov-19 01:12N 36°56' W 009°35'415.1
2017-Nov-19 00:58N 36°60' W 009°36'914.6
2017-Nov-19 00:19N 37°09' W 009°36'514.8
2017-Nov-19 00:00N 37°12' W 009°32'714.7
2017-Nov-18 23:30N 37°18' W 009°26'715.0
2017-Nov-18 23:00N 37°23' W 009°20'815.2
2017-Nov-18 22:30N 37°29' W 009°14'714.7
2017-Nov-18 22:00N 37°35' W 009°09'714.9
2017-Nov-18 21:30N 37°41' W 009°03'714.7
2017-Nov-18 21:00N 37°47' W 008°57'713.4
2017-Nov-18 20:30N 37°52' W 008°51'4 7.3
2017-Nov-18 19:58N 37°56' W 008°51'0 0.0
2017-Nov-18 19:28N 37°56' W 008°51'0 0.0
2017-Nov-18 18:58N 37°56' W 008°51'0 0.0
2017-Nov-18 18:28N 37°56' W 008°51'0 0.0
2017-Nov-18 17:58N 37°56' W 008°51'0 0.0
2017-Nov-18 17:28N 37°56' W 008°51'0 0.0
2017-Nov-18 16:58N 37°56' W 008°51'0 0.0
2017-Nov-18 16:28N 37°56' W 008°51'0 0.0
2017-Nov-18 15:55N 37°56' W 008°51'0 0.0
2017-Nov-18 15:28N 37°56' W 008°51'0 0.0
2017-Nov-18 14:58N 37°56' W 008°51'0 0.0
2017-Nov-18 14:28N 37°56' W 008°51'0 0.0
2017-Nov-18 13:58N 37°56' W 008°51'0 0.0
2017-Nov-18 13:28N 37°56' W 008°51'0 0.0
2017-Nov-18 12:58N 37°56' W 008°51'0 0.0
2017-Nov-18 12:28N 37°56' W 008°51'0 0.3
2017-Nov-18 12:01N 37°56' W 008°51'2 4.5
2017-Nov-18 11:30N 37°54' W 008°51'2 4.8
2017-Nov-18 11:01N 37°52' W 008°53'5 9.9
2017-Nov-18 10:30N 37°53' W 008°59'815.7
2017-Nov-18 10:01N 37°55' W 009°09'918.1
2017-Nov-18 09:30N 37°59' W 009°19'918.0
2017-Nov-18 09:00N 38°01' W 009°30'714.9
2017-Nov-18 08:30N 38°03' W 009°39'714.1
2017-Nov-18 08:01N 38°05' W 009°48'714.4
2017-Nov-18 07:31N 38°08' W 009°57'714.5
2017-Nov-18 07:01N 38°10' W 010°05'714.4
2017-Nov-18 06:30N 38°12' W 010°14'714.3
2017-Nov-18 06:01N 38°14' W 010°23'714.5
2017-Nov-18 05:31N 38°17' W 010°32'714.6
2017-Nov-18 05:01N 38°19' W 010°40'714.5
2017-Nov-18 04:30N 38°21' W 010°49'1014.4
2017-Nov-18 03:51N 38°24' W 011°01'514.1
2017-Nov-18 03:30N 38°25' W 011°07'914.5
2017-Nov-18 02:52N 38°28' W 011°18'2514.5
2017-Nov-18 01:08N 38°36' W 011°48'314.4
2017-Nov-18 00:56N 38°37' W 011°52'714.5
2017-Nov-18 00:28N 38°39' W 012°00'  

Dump ship's entire track history